Archival Weather

Chicago O'Hare International

Chicago, Illinois (KORD)

Report from: Thursday, December 15, 2022 2:51 PM CST
Current time: Friday, June 21, 2024 5:48 PM CDT

Current weather – Weather history – Daily summaries
Weather forecast

Present weatherLight snow
Temperature1.7°C (35.1°F)
Wind chill-3.1°C (26.4°F)
Dew point-2.2°C (28.0°F)
Winds 11 kts (5.7 m/s, 12.7 mph) South-Southwest (210°)
Wind gusts 16 kts (8.2 m/s, 18.4 mph)
Visibility10 mi. (16.1 km)
Clouds Ceiling: Broken clouds 2,200 ft. (671 m)
Overcast 2,700 ft. (823 m)
Altimeter29.59 in.Hg (1002 mB)
Precipitiation0.01 in. (0 mm)
Precip last 3 hours0.01 in. (0 mm)
Relative humidity75 %
Density altitude-1,167 ft. (-356 m)
Sea-level pressure100.2 kPa (1002 mB, 29.60 in.Hg)
Remarks Automated weather observing station with precipitation discriminator
Pressure rising more quickly
Flight conditions Marginal Visual Meteorological Conditions
Raw dataKORD 152051Z 21011G16KT 10SM -SN BKN022 OVC027 02/M02 A2959 RMK AO2 SLP024 P0001 60001 T00171022 53008
An error has occurred. This application may no longer respond until reloaded. Reload 🗙